createdAt,value
2022-12-15T00:00:52.868Z,45.00
2022-12-15T00:04:21.607Z,43.40
2022-12-15T00:07:43.165Z,34.20
2022-12-15T00:11:04.457Z,45.60
2022-12-15T00:14:27.471Z,45.70
2022-12-15T00:17:49.010Z,47.00
2022-12-15T00:21:10.631Z,47.50
2022-12-15T00:24:32.226Z,47.90
2022-12-15T00:27:53.691Z,46.60
2022-12-15T00:31:17.570Z,40.50
2022-12-15T00:34:39.259Z,36.20
2022-12-15T00:38:00.893Z,37.00
2022-12-15T00:41:04.881Z,36.00
2022-12-15T00:44:07.878Z,37.50
2022-12-15T00:47:10.878Z,38.60
2022-12-15T00:50:32.613Z,39.00
2022-12-15T00:53:54.028Z,37.60
2022-12-15T00:57:16.168Z,37.50
2022-12-15T01:00:38.338Z,37.50
2022-12-15T01:03:59.921Z,38.40
2022-12-15T01:07:21.636Z,37.60
2022-12-15T01:10:43.004Z,31.70
2022-12-15T01:14:05.018Z,39.50
2022-12-15T01:17:26.753Z,40.90
2022-12-15T01:20:32.788Z,29.60
2022-12-15T01:23:37.708Z,38.10
2022-12-15T01:26:40.718Z,37.60
2022-12-15T01:29:43.903Z,35.90
2022-12-15T01:32:46.969Z,35.80
2022-12-15T01:36:00.741Z,34.70
2022-12-15T01:39:03.810Z,33.00
2022-12-15T01:42:12.399Z,35.00
2022-12-15T01:45:24.464Z,32.50
2022-12-15T01:48:38.492Z,29.50
2022-12-15T01:51:47.227Z,30.20
2022-12-15T01:54:54.046Z,29.60
2022-12-15T01:58:03.462Z,28.00
2022-12-15T02:01:07.386Z,28.80
2022-12-15T02:04:10.779Z,30.10
2022-12-15T02:07:15.756Z,31.00
2022-12-15T02:10:18.918Z,31.60
2022-12-15T02:13:28.461Z,32.70
2022-12-15T02:17:14.836Z,32.80
2022-12-15T02:20:39.184Z,30.60
2022-12-15T02:24:04.489Z,32.30
2022-12-15T02:27:10.119Z,31.30
2022-12-15T02:30:42.428Z,32.90
2022-12-15T02:33:54.872Z,32.20
2022-12-15T02:37:26.230Z,33.60
2022-12-15T02:40:29.343Z,32.20
2022-12-15T02:43:37.171Z,32.90
2022-12-15T02:46:46.029Z,33.10
2022-12-15T02:50:06.927Z,36.50
2022-12-15T02:53:35.867Z,36.20
2022-12-15T02:56:48.152Z,34.20
2022-12-15T03:03:01.505Z,32.60
2022-12-15T03:06:04.878Z,33.10
2022-12-15T03:09:07.947Z,33.90
2022-12-15T03:12:11.076Z,32.80
2022-12-15T03:15:14.091Z,32.30
2022-12-15T03:18:17.182Z,33.90
2022-12-15T03:21:20.273Z,32.30
2022-12-15T03:24:23.232Z,33.90
2022-12-15T03:27:26.268Z,37.40
2022-12-15T03:30:29.401Z,35.90
2022-12-15T03:33:34.642Z,33.90
2022-12-15T03:36:38.386Z,34.60
2022-12-15T03:39:41.406Z,34.60
2022-12-15T03:42:48.585Z,35.40
2022-12-15T03:45:51.749Z,35.00
2022-12-15T03:48:54.775Z,35.40
2022-12-15T03:51:57.812Z,35.30
2022-12-15T03:55:00.754Z,36.60
2022-12-15T03:58:03.976Z,35.20
2022-12-15T04:01:23.394Z,35.80
2022-12-15T04:04:26.525Z,37.20
2022-12-15T04:07:29.477Z,38.40
2022-12-15T04:10:35.311Z,38.70
2022-12-15T04:13:38.413Z,38.70
2022-12-15T04:16:41.564Z,38.40
2022-12-15T04:20:03.146Z,38.80
2022-12-15T04:23:09.552Z,37.70
2022-12-15T04:26:31.352Z,38.70
2022-12-15T04:29:52.997Z,41.10
2022-12-15T04:33:14.617Z,42.10
2022-12-15T04:36:36.545Z,42.80
2022-12-15T04:40:05.300Z,40.80
2022-12-15T04:43:26.957Z,41.40
2022-12-15T04:46:48.535Z,41.20
2022-12-15T04:50:10.259Z,41.70
2022-12-15T04:53:35.122Z,31.30
2022-12-15T04:56:56.845Z,39.90
2022-12-15T05:00:18.318Z,39.50
2022-12-15T05:03:42.802Z,39.30
2022-12-15T05:07:04.135Z,39.60
2022-12-15T05:10:26.466Z,40.80
2022-12-15T05:13:48.220Z,40.80
2022-12-15T05:17:09.834Z,32.90
2022-12-15T05:20:31.562Z,40.70
2022-12-15T05:23:53.085Z,40.80
2022-12-15T05:27:15.008Z,42.50
2022-12-15T05:30:36.372Z,42.20
2022-12-15T05:33:39.385Z,42.40
2022-12-15T05:36:42.559Z,41.90
2022-12-15T05:39:45.611Z,44.80
2022-12-15T05:42:50.193Z,44.40
2022-12-15T05:45:53.524Z,43.60
2022-12-15T05:48:56.581Z,42.30
2022-12-15T05:51:59.558Z,42.10
2022-12-15T05:55:02.659Z,42.40
2022-12-15T05:58:05.634Z,43.10
2022-12-15T06:01:12.011Z,42.40
2022-12-15T06:04:15.240Z,40.30
2022-12-15T06:07:18.330Z,40.80
2022-12-15T06:10:24.019Z,39.70
2022-12-15T06:13:28.949Z,39.10
2022-12-15T06:16:33.209Z,39.70
2022-12-15T06:19:36.286Z,37.90
2022-12-15T06:22:39.417Z,40.20
2022-12-15T06:25:44.825Z,39.70
2022-12-15T06:28:49.623Z,35.80
2022-12-15T06:31:52.724Z,34.40
2022-12-15T06:34:55.789Z,33.70
2022-12-15T06:37:58.759Z,32.50
2022-12-15T06:41:04.090Z,32.10
2022-12-15T06:44:07.845Z,31.00
2022-12-15T06:47:10.917Z,30.00
2022-12-15T06:50:14.015Z,28.40
2022-12-15T06:53:19.829Z,27.10
2022-12-15T06:56:32.605Z,30.30
2022-12-15T06:59:36.879Z,27.20
2022-12-15T07:02:42.477Z,26.40
2022-12-15T07:05:46.715Z,26.10
2022-12-15T07:08:56.820Z,26.20
2022-12-15T07:11:59.988Z,27.70
2022-12-15T07:15:03.157Z,25.80
2022-12-15T07:18:06.750Z,26.30
2022-12-15T07:21:10.538Z,26.50
2022-12-15T07:24:14.040Z,25.70
2022-12-15T07:27:18.222Z,25.30
2022-12-15T07:30:21.207Z,24.50
2022-12-15T07:33:24.210Z,24.80
2022-12-15T07:36:30.155Z,27.00
2022-12-15T07:39:33.370Z,27.90
2022-12-15T07:42:36.481Z,26.80
2022-12-15T07:45:39.552Z,27.60
2022-12-15T07:48:42.882Z,27.30
2022-12-15T07:51:46.053Z,26.70
2022-12-15T07:54:49.120Z,26.80
2022-12-15T07:57:52.124Z,24.90
2022-12-15T08:01:02.916Z,25.80
2022-12-15T08:04:06.367Z,23.30
2022-12-15T08:07:11.476Z,24.50
2022-12-15T08:10:14.500Z,24.70
2022-12-15T08:13:38.109Z,27.00
2022-12-15T08:16:40.663Z,29.80
2022-12-15T08:19:44.084Z,33.40
2022-12-15T08:22:47.096Z,31.80
2022-12-15T08:25:50.151Z,26.80
2022-12-15T08:28:53.582Z,29.00
2022-12-15T08:31:56.724Z,26.30
2022-12-15T08:34:59.959Z,24.50
2022-12-15T08:38:05.734Z,24.30
2022-12-15T08:41:17.121Z,25.10
2022-12-15T08:44:20.209Z,23.50
2022-12-15T08:47:23.290Z,26.40
2022-12-15T08:50:26.300Z,27.30
2022-12-15T08:53:31.889Z,25.30
2022-12-15T08:56:36.010Z,25.70
2022-12-15T08:59:39.028Z,27.30
2022-12-15T09:02:42.089Z,26.60
2022-12-15T09:05:45.197Z,27.70
2022-12-15T09:08:50.507Z,26.40
2022-12-15T09:11:53.734Z,27.10
2022-12-15T09:14:56.872Z,25.40
2022-12-15T09:18:00.582Z,28.90
2022-12-15T09:21:06.072Z,30.70
2022-12-15T09:24:18.379Z,29.10
2022-12-15T09:27:29.343Z,29.60
2022-12-15T09:30:32.409Z,31.50
2022-12-15T09:33:36.497Z,32.80
2022-12-15T09:36:40.879Z,30.60
2022-12-15T09:39:44.064Z,32.20
2022-12-15T09:43:05.085Z,33.30
2022-12-15T09:46:42.319Z,32.60
2022-12-15T09:49:59.070Z,33.30
2022-12-15T09:53:03.439Z,36.30
2022-12-15T09:56:21.643Z,36.20
2022-12-15T10:00:01.934Z,33.70
2022-12-15T10:03:45.366Z,35.20
2022-12-15T10:07:07.883Z,34.00
2022-12-15T10:10:19.993Z,32.00
2022-12-15T10:13:34.411Z,30.60
2022-12-15T10:16:52.960Z,30.10
2022-12-15T10:20:06.510Z,26.70
2022-12-15T10:23:15.375Z,32.60
2022-12-15T10:26:23.363Z,26.00
2022-12-15T10:33:25.471Z,23.30
2022-12-15T10:36:31.771Z,23.70
2022-12-15T10:39:43.644Z,26.60
2022-12-15T10:42:50.074Z,26.30
2022-12-15T10:46:26.827Z,25.00
2022-12-15T10:49:30.680Z,24.50
2022-12-15T10:52:37.776Z,25.60
2022-12-15T10:55:49.820Z,28.20
2022-12-15T10:58:57.013Z,32.50
2022-12-15T11:02:24.653Z,32.10
2022-12-15T11:05:30.020Z,34.70
2022-12-15T11:08:33.138Z,39.30
2022-12-15T11:12:05.711Z,32.10
2022-12-15T11:15:32.099Z,31.20
2022-12-15T11:18:42.567Z,29.80
2022-12-15T11:21:52.462Z,30.60
2022-12-15T11:25:11.267Z,26.40
2022-12-15T11:28:33.009Z,26.40
2022-12-15T11:31:41.851Z,23.10
2022-12-15T11:34:46.886Z,27.90
2022-12-15T11:37:56.644Z,26.10
2022-12-15T11:41:17.861Z,28.10
2022-12-15T11:45:02.949Z,24.50
2022-12-15T11:48:14.372Z,33.00
2022-12-15T11:51:24.484Z,29.90
2022-12-15T11:54:39.243Z,26.60
2022-12-15T11:57:57.935Z,25.60
2022-12-15T12:01:17.160Z,25.30
2022-12-15T12:04:24.959Z,37.90
2022-12-15T12:07:49.802Z,34.00
2022-12-15T12:11:05.627Z,34.80
2022-12-15T12:14:23.855Z,32.30
2022-12-15T12:17:48.802Z,26.60
2022-12-15T12:21:22.218Z,27.80
2022-12-15T12:24:28.860Z,28.80
2022-12-15T12:27:48.797Z,33.90
2022-12-15T12:30:56.421Z,30.80
2022-12-15T12:34:08.938Z,32.50
2022-12-15T12:37:35.597Z,33.70
2022-12-15T12:40:38.675Z,33.00
2022-12-15T12:43:50.219Z,33.00
2022-12-15T12:46:57.906Z,34.80
2022-12-15T12:50:07.968Z,35.10
2022-12-15T12:53:27.416Z,30.10
2022-12-15T12:56:33.471Z,29.60
2022-12-15T12:59:39.412Z,28.10
2022-12-15T13:02:50.758Z,29.00
2022-12-15T13:05:55.024Z,26.40
2022-12-15T13:09:00.835Z,24.70
2022-12-15T13:12:20.788Z,25.20
2022-12-15T13:15:29.958Z,24.30
2022-12-15T13:18:55.799Z,23.50
2022-12-15T13:21:59.459Z,26.30
2022-12-15T13:25:23.633Z,26.60
2022-12-15T13:28:42.900Z,25.70
2022-12-15T13:31:50.316Z,26.00
2022-12-15T13:34:53.892Z,26.70
2022-12-15T13:38:03.122Z,35.00
2022-12-15T13:41:22.922Z,39.40
2022-12-15T13:44:41.884Z,35.00
2022-12-15T13:47:55.828Z,30.50
2022-12-15T13:51:18.117Z,23.80
2022-12-15T13:54:34.115Z,23.60
2022-12-15T13:57:51.604Z,19.70
2022-12-15T14:00:57.159Z,20.30
2022-12-15T14:04:15.809Z,19.90
2022-12-15T14:07:19.065Z,20.10
2022-12-15T14:10:29.818Z,17.90
2022-12-15T14:13:36.511Z,19.70
2022-12-15T14:16:40.259Z,20.80
2022-12-15T14:19:46.729Z,20.00
2022-12-15T14:22:56.844Z,23.90
2022-12-15T14:26:08.905Z,27.80
2022-12-15T14:29:15.218Z,29.10
2022-12-15T14:32:18.512Z,28.00
2022-12-15T14:35:39.404Z,27.50
2022-12-15T14:38:45.348Z,23.10
2022-12-15T14:41:51.809Z,22.50
2022-12-15T14:44:58.082Z,22.00
2022-12-15T14:48:39.500Z,24.20
2022-12-15T14:51:38.500Z,25.20
2022-12-15T14:54:52.738Z,23.50
2022-12-15T14:57:56.084Z,23.10
2022-12-15T15:01:01.034Z,23.10
2022-12-15T15:04:07.626Z,20.70
2022-12-15T15:07:19.187Z,20.40
2022-12-15T15:10:29.959Z,24.90
2022-12-15T15:13:40.799Z,24.50
2022-12-15T15:16:44.586Z,22.30
2022-12-15T15:20:00.693Z,23.00
2022-12-15T15:23:12.875Z,22.40
2022-12-15T15:26:16.737Z,20.90
2022-12-15T15:29:38.836Z,22.30
2022-12-15T15:32:54.089Z,21.40
2022-12-15T15:36:02.430Z,20.50
2022-12-15T15:39:16.248Z,21.30
2022-12-15T15:42:19.386Z,21.60
2022-12-15T15:45:22.850Z,20.50
2022-12-15T15:48:31.272Z,23.10
2022-12-15T15:51:35.515Z,24.00
2022-12-15T15:54:38.953Z,27.70
2022-12-15T15:57:42.331Z,28.40
2022-12-15T16:00:45.488Z,33.00
2022-12-15T16:03:48.703Z,30.30
2022-12-15T16:06:53.010Z,31.00
2022-12-15T16:09:56.982Z,38.00
2022-12-15T16:13:02.206Z,40.10
2022-12-15T16:16:06.933Z,41.10
2022-12-15T16:19:12.048Z,40.80
2022-12-15T16:22:18.154Z,38.00
2022-12-15T16:25:32.870Z,36.40
2022-12-15T16:28:40.740Z,30.30
2022-12-15T16:31:45.727Z,28.60
2022-12-15T16:34:51.509Z,26.90
2022-12-15T16:37:54.944Z,23.20
2022-12-15T16:41:04.837Z,22.50
2022-12-15T16:44:12.562Z,21.90
2022-12-15T16:47:16.159Z,22.70
2022-12-15T16:50:21.819Z,22.10
2022-12-15T16:53:26.671Z,20.30
2022-12-15T16:56:33.165Z,20.80
2022-12-15T16:59:36.417Z,20.70
2022-12-15T17:02:42.068Z,21.30
2022-12-15T17:05:49.603Z,22.30
2022-12-15T17:08:56.665Z,19.90
2022-12-15T17:12:00.582Z,21.50
2022-12-15T17:15:16.033Z,26.40
2022-12-15T17:18:24.883Z,35.70
2022-12-15T17:21:54.646Z,44.10
2022-12-15T17:24:57.731Z,48.30
2022-12-15T17:28:01.366Z,48.80
2022-12-15T17:31:04.585Z,52.90
2022-12-15T17:34:22.000Z,55.10
2022-12-15T17:37:28.105Z,57.10
2022-12-15T17:40:43.223Z,47.70
2022-12-15T17:44:09.675Z,48.60
2022-12-15T17:47:14.740Z,45.20
2022-12-15T17:50:18.775Z,44.60
2022-12-15T17:53:24.215Z,49.10
2022-12-15T17:56:27.431Z,46.30
2022-12-15T17:59:32.290Z,46.10
2022-12-15T18:02:36.338Z,47.10
2022-12-15T18:05:39.791Z,45.90
2022-12-15T18:08:43.088Z,43.70
2022-12-15T18:11:46.967Z,45.40
2022-12-15T18:14:50.528Z,47.30
2022-12-15T18:17:54.173Z,44.40
2022-12-15T18:21:03.295Z,44.60
2022-12-15T18:24:15.050Z,41.40
2022-12-15T18:27:21.676Z,41.20
2022-12-15T18:30:26.439Z,40.50
2022-12-15T18:33:30.885Z,39.50
2022-12-15T18:36:35.371Z,41.20
2022-12-15T18:39:38.407Z,40.10
2022-12-15T18:42:41.750Z,38.50
2022-12-15T18:45:45.785Z,41.70
2022-12-15T18:48:48.793Z,40.50
2022-12-15T18:51:52.086Z,39.60
2022-12-15T18:54:55.149Z,41.80
2022-12-15T18:58:01.991Z,41.40
2022-12-15T19:01:06.825Z,40.40
2022-12-15T19:04:09.847Z,41.20
2022-12-15T19:07:12.953Z,40.90
2022-12-15T19:10:15.991Z,40.30
2022-12-15T19:13:22.492Z,39.50
2022-12-15T19:16:25.799Z,39.40
2022-12-15T19:20:10.400Z,40.10
2022-12-15T19:23:14.638Z,40.30
2022-12-15T19:26:17.592Z,37.30
2022-12-15T19:29:23.222Z,36.20
2022-12-15T19:32:26.921Z,38.70
2022-12-15T19:35:30.033Z,40.10
2022-12-15T19:38:36.533Z,38.50
2022-12-15T19:41:39.536Z,37.80
2022-12-15T19:44:42.515Z,36.90
2022-12-15T19:47:45.577Z,35.80
2022-12-15T19:50:51.863Z,35.90
2022-12-15T19:53:56.526Z,34.60
2022-12-15T19:56:59.519Z,31.00
2022-12-15T20:00:06.551Z,34.80
2022-12-15T20:03:14.999Z,32.20
2022-12-15T20:06:19.999Z,33.90
2022-12-15T20:09:23.022Z,32.90
2022-12-15T20:12:26.172Z,35.10
2022-12-15T20:15:29.472Z,34.30
2022-12-15T20:18:32.912Z,31.80
2022-12-15T20:21:38.784Z,33.40
2022-12-15T20:24:43.221Z,33.30
2022-12-15T20:27:47.720Z,34.50
2022-12-15T20:30:51.507Z,35.40
2022-12-15T20:33:54.721Z,33.90
2022-12-15T20:36:57.852Z,35.60
2022-12-15T20:40:01.009Z,36.00
2022-12-15T20:43:11.491Z,38.30
2022-12-15T20:46:19.648Z,36.90
2022-12-15T20:49:23.910Z,37.20
2022-12-15T20:52:27.260Z,36.80
2022-12-15T20:55:31.482Z,37.40
2022-12-15T20:58:40.188Z,38.30
2022-12-15T21:01:44.599Z,38.50
2022-12-15T21:04:48.125Z,37.80
2022-12-15T21:07:51.730Z,36.20
2022-12-15T21:10:58.502Z,44.90
2022-12-15T21:14:04.667Z,40.30
2022-12-15T21:17:18.009Z,38.20
2022-12-15T21:20:21.041Z,36.70
2022-12-15T21:23:27.491Z,34.20
2022-12-15T21:26:30.508Z,36.50
2022-12-15T21:29:35.324Z,37.40
2022-12-15T21:32:38.483Z,37.30
2022-12-15T21:35:43.158Z,37.00
2022-12-15T21:38:49.034Z,40.50
2022-12-15T21:41:52.752Z,39.00
2022-12-15T21:44:58.240Z,38.60
2022-12-15T21:48:19.689Z,35.40
2022-12-15T21:51:22.752Z,37.80
2022-12-15T21:54:31.337Z,39.60
2022-12-15T21:57:34.665Z,38.00
2022-12-15T22:00:42.292Z,37.50
2022-12-15T22:03:52.676Z,36.30
2022-12-15T22:06:57.693Z,36.70
2022-12-15T22:10:00.680Z,37.20
2022-12-15T22:13:03.869Z,37.20
2022-12-15T22:16:08.779Z,39.60
2022-12-15T22:19:13.606Z,40.00
2022-12-15T22:22:16.862Z,37.80
2022-12-15T22:25:23.461Z,39.00
2022-12-15T22:28:28.643Z,36.80
2022-12-15T22:31:31.705Z,37.00
2022-12-15T22:34:34.891Z,36.00
2022-12-15T22:37:37.907Z,38.30
2022-12-15T22:40:40.968Z,36.90
2022-12-15T22:43:46.639Z,36.60
2022-12-15T22:46:52.229Z,37.90
2022-12-15T22:49:57.105Z,35.70
2022-12-15T22:53:00.822Z,37.00
2022-12-15T22:56:12.713Z,37.80
2022-12-15T22:59:24.536Z,35.80
2022-12-15T23:02:39.508Z,36.00
2022-12-15T23:05:42.675Z,33.90
2022-12-15T23:08:45.826Z,33.80
2022-12-15T23:11:48.916Z,30.40
2022-12-15T23:15:10.499Z,33.00
2022-12-15T23:18:13.736Z,33.00
2022-12-15T23:21:16.864Z,34.30
2022-12-15T23:24:19.821Z,31.60
2022-12-15T23:27:22.799Z,32.00
2022-12-15T23:30:26.036Z,31.90
2022-12-15T23:33:30.046Z,29.40
2022-12-15T23:36:33.272Z,30.60
2022-12-15T23:39:36.276Z,30.70
2022-12-15T23:42:39.328Z,30.20
2022-12-15T23:45:43.120Z,27.80
2022-12-15T23:48:46.158Z,27.80
2022-12-15T23:51:49.225Z,28.30
2022-12-15T23:54:52.256Z,25.10
2022-12-15T23:57:56.818Z,27.00
